sensor_id;sensor_type;location;lat;lon;timestamp;P1;durP1;ratioP1;P2;durP2;ratioP2
71083;SDS011;58741;52.672;13.548;2024-02-21T00:00:21;5.00;;;2.65;;
71083;SDS011;58741;52.672;13.548;2024-02-21T00:02:48;4.70;;;2.92;;
71083;SDS011;58741;52.672;13.548;2024-02-21T00:05:15;6.93;;;2.42;;
71083;SDS011;58741;52.672;13.548;2024-02-21T00:07:42;3.97;;;2.65;;
71083;SDS011;58741;52.672;13.548;2024-02-21T00:10:08;6.65;;;2.47;;
71083;SDS011;58741;52.672;13.548;2024-02-21T00:12:35;3.28;;;2.50;;
71083;SDS011;58741;52.672;13.548;2024-02-21T00:15:02;4.18;;;2.45;;
71083;SDS011;58741;52.672;13.548;2024-02-21T00:17:29;8.57;;;2.63;;
71083;SDS011;58741;52.672;13.548;2024-02-21T00:19:56;4.15;;;2.35;;
71083;SDS011;58741;52.672;13.548;2024-02-21T00:22:23;5.05;;;2.55;;
71083;SDS011;58741;52.672;13.548;2024-02-21T00:24:50;3.70;;;1.92;;
71083;SDS011;58741;52.672;13.548;2024-02-21T00:27:16;6.03;;;2.70;;
71083;SDS011;58741;52.672;13.548;2024-02-21T00:29:43;2.60;;;1.90;;
71083;SDS011;58741;52.672;13.548;2024-02-21T00:32:10;4.32;;;2.10;;
71083;SDS011;58741;52.672;13.548;2024-02-21T00:34:37;4.28;;;2.22;;
71083;SDS011;58741;52.672;13.548;2024-02-21T00:37:04;3.95;;;2.25;;
71083;SDS011;58741;52.672;13.548;2024-02-21T00:39:32;4.40;;;1.88;;
71083;SDS011;58741;52.672;13.548;2024-02-21T00:41:58;8.20;;;2.63;;
71083;SDS011;58741;52.672;13.548;2024-02-21T00:44:25;3.65;;;2.22;;
71083;SDS011;58741;52.672;13.548;2024-02-21T00:46:52;3.58;;;1.95;;
71083;SDS011;58741;52.672;13.548;2024-02-21T00:49:19;6.05;;;2.85;;
71083;SDS011;58741;52.672;13.548;2024-02-21T00:51:46;7.40;;;2.55;;
71083;SDS011;58741;52.672;13.548;2024-02-21T00:54:13;3.35;;;1.90;;
71083;SDS011;58741;52.672;13.548;2024-02-21T00:56:40;5.35;;;2.28;;
71083;SDS011;58741;52.672;13.548;2024-02-21T00:59:07;3.50;;;1.38;;
71083;SDS011;58741;52.672;13.548;2024-02-21T01:01:33;6.43;;;2.30;;
71083;SDS011;58741;52.672;13.548;2024-02-21T01:04:01;2.83;;;1.63;;
71083;SDS011;58741;52.672;13.548;2024-02-21T01:06:28;3.15;;;1.88;;
71083;SDS011;58741;52.672;13.548;2024-02-21T01:08:55;3.83;;;2.15;;
71083;SDS011;58741;52.672;13.548;2024-02-21T01:11:21;2.17;;;1.52;;
71083;SDS011;58741;52.672;13.548;2024-02-21T01:13:48;5.25;;;1.67;;
71083;SDS011;58741;52.672;13.548;2024-02-21T01:16:15;3.30;;;1.88;;
71083;SDS011;58741;52.672;13.548;2024-02-21T01:18:42;5.00;;;1.92;;
71083;SDS011;58741;52.672;13.548;2024-02-21T01:21:09;3.72;;;1.85;;
71083;SDS011;58741;52.672;13.548;2024-02-21T01:23:37;6.38;;;1.83;;
71083;SDS011;58741;52.672;13.548;2024-02-21T01:26:04;5.43;;;1.58;;
71083;SDS011;58741;52.672;13.548;2024-02-21T01:28:31;3.67;;;1.88;;
71083;SDS011;58741;52.672;13.548;2024-02-21T01:30:58;3.28;;;1.40;;
71083;SDS011;58741;52.672;13.548;2024-02-21T01:33:25;2.92;;;1.80;;
71083;SDS011;58741;52.672;13.548;2024-02-21T01:35:52;3.80;;;1.95;;
71083;SDS011;58741;52.672;13.548;2024-02-21T01:38:19;3.75;;;1.85;;
71083;SDS011;58741;52.672;13.548;2024-02-21T01:40:46;4.70;;;2.33;;
71083;SDS011;58741;52.672;13.548;2024-02-21T01:43:16;6.60;;;1.85;;
71083;SDS011;58741;52.672;13.548;2024-02-21T01:45:55;2.35;;;1.35;;
71083;SDS011;58741;52.672;13.548;2024-02-21T01:48:22;2.85;;;1.65;;
71083;SDS011;58741;52.672;13.548;2024-02-21T01:50:50;3.00;;;1.67;;
71083;SDS011;58741;52.672;13.548;2024-02-21T01:53:22;3.97;;;1.92;;
71083;SDS011;58741;52.672;13.548;2024-02-21T01:55:51;4.38;;;1.77;;
71083;SDS011;58741;52.672;13.548;2024-02-21T01:58:19;3.70;;;1.65;;
71083;SDS011;58741;52.672;13.548;2024-02-21T02:00:46;4.35;;;2.10;;
71083;SDS011;58741;52.672;13.548;2024-02-21T02:03:14;3.25;;;1.90;;
71083;SDS011;58741;52.672;13.548;2024-02-21T02:05:44;2.78;;;1.95;;
71083;SDS011;58741;52.672;13.548;2024-02-21T02:08:16;2.78;;;1.88;;
71083;SDS011;58741;52.672;13.548;2024-02-21T02:10:43;2.50;;;1.30;;
71083;SDS011;58741;52.672;13.548;2024-02-21T02:13:11;3.35;;;1.80;;
71083;SDS011;58741;52.672;13.548;2024-02-21T02:18:11;3.80;;;1.98;;
71083;SDS011;58741;52.672;13.548;2024-02-21T02:20:39;1.77;;;1.30;;
71083;SDS011;58741;52.672;13.548;2024-02-21T02:23:10;2.65;;;1.67;;
71083;SDS011;58741;52.672;13.548;2024-02-21T02:25:39;5.60;;;1.92;;
71083;SDS011;58741;52.672;13.548;2024-02-21T02:28:06;2.85;;;1.42;;
71083;SDS011;58741;52.672;13.548;2024-02-21T02:30:34;5.53;;;2.25;;
71083;SDS011;58741;52.672;13.548;2024-02-21T02:33:03;6.25;;;1.52;;
71083;SDS011;58741;52.672;13.548;2024-02-21T02:35:30;5.43;;;1.95;;
71083;SDS011;58741;52.672;13.548;2024-02-21T02:37:58;5.60;;;1.67;;
71083;SDS011;58741;52.672;13.548;2024-02-21T02:40:25;6.35;;;2.17;;
71083;SDS011;58741;52.672;13.548;2024-02-21T02:42:52;3.92;;;2.30;;
71083;SDS011;58741;52.672;13.548;2024-02-21T02:45:22;3.33;;;1.42;;
71083;SDS011;58741;52.672;13.548;2024-02-21T02:47:53;4.50;;;2.20;;
71083;SDS011;58741;52.672;13.548;2024-02-21T02:50:20;2.85;;;1.70;;
71083;SDS011;58741;52.672;13.548;2024-02-21T02:52:47;3.55;;;1.83;;
71083;SDS011;58741;52.672;13.548;2024-02-21T02:55:14;4.18;;;2.30;;
71083;SDS011;58741;52.672;13.548;2024-02-21T02:57:41;6.32;;;1.83;;
71083;SDS011;58741;52.672;13.548;2024-02-21T03:00:10;5.93;;;1.60;;
71083;SDS011;58741;52.672;13.548;2024-02-21T03:02:38;3.83;;;1.65;;
71083;SDS011;58741;52.672;13.548;2024-02-21T03:05:27;7.65;;;2.22;;
71083;SDS011;58741;52.672;13.548;2024-02-21T03:07:53;6.63;;;2.00;;
71083;SDS011;58741;52.672;13.548;2024-02-21T03:10:20;5.03;;;2.85;;
71083;SDS011;58741;52.672;13.548;2024-02-21T03:12:47;5.47;;;2.30;;
71083;SDS011;58741;52.672;13.548;2024-02-21T03:15:14;3.65;;;2.30;;
71083;SDS011;58741;52.672;13.548;2024-02-21T03:17:41;7.28;;;2.05;;
71083;SDS011;58741;52.672;13.548;2024-02-21T03:20:08;3.22;;;1.92;;
71083;SDS011;58741;52.672;13.548;2024-02-21T03:22:38;2.65;;;1.50;;
71083;SDS011;58741;52.672;13.548;2024-02-21T03:25:05;3.63;;;1.52;;
71083;SDS011;58741;52.672;13.548;2024-02-21T03:27:33;6.25;;;2.33;;
71083;SDS011;58741;52.672;13.548;2024-02-21T03:29:59;5.28;;;2.65;;
71083;SDS011;58741;52.672;13.548;2024-02-21T03:32:26;4.45;;;1.83;;
71083;SDS011;58741;52.672;13.548;2024-02-21T03:34:54;6.78;;;2.95;;
71083;SDS011;58741;52.672;13.548;2024-02-21T03:37:21;5.75;;;2.63;;
71083;SDS011;58741;52.672;13.548;2024-02-21T03:39:48;5.22;;;3.05;;
71083;SDS011;58741;52.672;13.548;2024-02-21T03:42:15;7.95;;;2.80;;
71083;SDS011;58741;52.672;13.548;2024-02-21T03:44:42;4.18;;;2.05;;
71083;SDS011;58741;52.672;13.548;2024-02-21T03:47:09;4.65;;;2.72;;
71083;SDS011;58741;52.672;13.548;2024-02-21T03:49:37;3.95;;;1.88;;
71083;SDS011;58741;52.672;13.548;2024-02-21T03:52:04;4.43;;;2.42;;
71083;SDS011;58741;52.672;13.548;2024-02-21T03:54:32;2.83;;;1.80;;
71083;SDS011;58741;52.672;13.548;2024-02-21T03:56:58;7.00;;;2.50;;
71083;SDS011;58741;52.672;13.548;2024-02-21T03:59:25;6.22;;;2.50;;
71083;SDS011;58741;52.672;13.548;2024-02-21T04:01:52;5.22;;;2.70;;
71083;SDS011;58741;52.672;13.548;2024-02-21T04:04:20;3.40;;;2.08;;
71083;SDS011;58741;52.672;13.548;2024-02-21T04:06:50;5.20;;;2.80;;
71083;SDS011;58741;52.672;13.548;2024-02-21T04:09:17;6.80;;;3.42;;
71083;SDS011;58741;52.672;13.548;2024-02-21T04:11:44;5.47;;;2.50;;
71083;SDS011;58741;52.672;13.548;2024-02-21T04:14:11;5.75;;;2.53;;
71083;SDS011;58741;52.672;13.548;2024-02-21T04:16:38;6.60;;;3.47;;
71083;SDS011;58741;52.672;13.548;2024-02-21T04:19:06;5.03;;;2.60;;
71083;SDS011;58741;52.672;13.548;2024-02-21T04:21:34;5.63;;;2.58;;
71083;SDS011;58741;52.672;13.548;2024-02-21T04:24:01;5.75;;;2.72;;
71083;SDS011;58741;52.672;13.548;2024-02-21T04:26:29;5.13;;;2.85;;
71083;SDS011;58741;52.672;13.548;2024-02-21T04:28:56;4.60;;;2.75;;
71083;SDS011;58741;52.672;13.548;2024-02-21T04:31:23;4.68;;;2.63;;
71083;SDS011;58741;52.672;13.548;2024-02-21T04:33:51;6.63;;;2.92;;
71083;SDS011;58741;52.672;13.548;2024-02-21T04:36:18;7.57;;;3.17;;
71083;SDS011;58741;52.672;13.548;2024-02-21T04:38:45;5.15;;;2.70;;
71083;SDS011;58741;52.672;13.548;2024-02-21T04:41:11;5.72;;;2.60;;
71083;SDS011;58741;52.672;13.548;2024-02-21T04:43:38;8.85;;;3.15;;
71083;SDS011;58741;52.672;13.548;2024-02-21T04:46:05;8.07;;;2.92;;
71083;SDS011;58741;52.672;13.548;2024-02-21T04:48:32;4.05;;;2.22;;
71083;SDS011;58741;52.672;13.548;2024-02-21T04:50:59;4.55;;;2.40;;
71083;SDS011;58741;52.672;13.548;2024-02-21T04:53:26;4.63;;;2.53;;
71083;SDS011;58741;52.672;13.548;2024-02-21T04:55:52;4.65;;;2.50;;
71083;SDS011;58741;52.672;13.548;2024-02-21T04:58:19;5.55;;;2.60;;
71083;SDS011;58741;52.672;13.548;2024-02-21T05:00:46;4.63;;;2.55;;
71083;SDS011;58741;52.672;13.548;2024-02-21T05:03:13;5.10;;;2.72;;
71083;SDS011;58741;52.672;13.548;2024-02-21T05:05:40;4.90;;;2.28;;
71083;SDS011;58741;52.672;13.548;2024-02-21T05:08:07;5.47;;;2.95;;
71083;SDS011;58741;52.672;13.548;2024-02-21T05:10:36;6.30;;;2.50;;
71083;SDS011;58741;52.672;13.548;2024-02-21T05:13:03;4.85;;;2.92;;
71083;SDS011;58741;52.672;13.548;2024-02-21T05:15:30;7.32;;;3.03;;
71083;SDS011;58741;52.672;13.548;2024-02-21T05:17:57;5.57;;;2.97;;
71083;SDS011;58741;52.672;13.548;2024-02-21T05:20:24;4.32;;;2.85;;
71083;SDS011;58741;52.672;13.548;2024-02-21T05:22:51;6.22;;;2.90;;
71083;SDS011;58741;52.672;13.548;2024-02-21T05:25:18;5.50;;;2.80;;
71083;SDS011;58741;52.672;13.548;2024-02-21T05:27:45;8.73;;;2.63;;
71083;SDS011;58741;52.672;13.548;2024-02-21T05:30:12;7.55;;;2.92;;
71083;SDS011;58741;52.672;13.548;2024-02-21T05:32:39;7.38;;;3.10;;
71083;SDS011;58741;52.672;13.548;2024-02-21T05:35:07;8.32;;;3.38;;
71083;SDS011;58741;52.672;13.548;2024-02-21T05:37:34;9.68;;;4.10;;
71083;SDS011;58741;52.672;13.548;2024-02-21T05:40:01;7.57;;;3.38;;
71083;SDS011;58741;52.672;13.548;2024-02-21T05:42:28;7.13;;;3.28;;
71083;SDS011;58741;52.672;13.548;2024-02-21T05:44:55;7.18;;;3.15;;
71083;SDS011;58741;52.672;13.548;2024-02-21T05:47:22;5.45;;;2.80;;
71083;SDS011;58741;52.672;13.548;2024-02-21T05:49:48;6.20;;;3.53;;
71083;SDS011;58741;52.672;13.548;2024-02-21T05:52:19;12.20;;;4.97;;
71083;SDS011;58741;52.672;13.548;2024-02-21T05:54:46;8.45;;;3.67;;
71083;SDS011;58741;52.672;13.548;2024-02-21T05:57:19;7.03;;;3.30;;
71083;SDS011;58741;52.672;13.548;2024-02-21T05:59:46;5.65;;;3.50;;
71083;SDS011;58741;52.672;13.548;2024-02-21T06:02:13;6.35;;;3.38;;
71083;SDS011;58741;52.672;13.548;2024-02-21T06:04:40;6.72;;;3.15;;
71083;SDS011;58741;52.672;13.548;2024-02-21T06:07:09;5.20;;;2.65;;
71083;SDS011;58741;52.672;13.548;2024-02-21T06:09:36;10.45;;;3.20;;
71083;SDS011;58741;52.672;13.548;2024-02-21T06:12:03;6.68;;;3.30;;
71083;SDS011;58741;52.672;13.548;2024-02-21T06:14:30;6.15;;;2.83;;
71083;SDS011;58741;52.672;13.548;2024-02-21T06:16:57;7.72;;;3.28;;
71083;SDS011;58741;52.672;13.548;2024-02-21T06:19:24;9.93;;;3.05;;
71083;SDS011;58741;52.672;13.548;2024-02-21T06:21:51;5.72;;;3.28;;
71083;SDS011;58741;52.672;13.548;2024-02-21T06:24:17;4.68;;;2.60;;
71083;SDS011;58741;52.672;13.548;2024-02-21T06:26:44;4.88;;;3.08;;
71083;SDS011;58741;52.672;13.548;2024-02-21T06:29:11;6.30;;;3.95;;
71083;SDS011;58741;52.672;13.548;2024-02-21T06:31:40;8.38;;;3.38;;
71083;SDS011;58741;52.672;13.548;2024-02-21T06:34:07;8.13;;;3.42;;
71083;SDS011;58741;52.672;13.548;2024-02-21T06:36:34;4.68;;;3.13;;
71083;SDS011;58741;52.672;13.548;2024-02-21T06:39:01;9.65;;;4.10;;
71083;SDS011;58741;52.672;13.548;2024-02-21T06:41:27;5.78;;;3.33;;
71083;SDS011;58741;52.672;13.548;2024-02-21T06:43:56;6.95;;;2.95;;
71083;SDS011;58741;52.672;13.548;2024-02-21T06:46:27;8.82;;;4.32;;
71083;SDS011;58741;52.672;13.548;2024-02-21T06:48:56;10.45;;;3.70;;
71083;SDS011;58741;52.672;13.548;2024-02-21T06:51:24;7.65;;;3.38;;
71083;SDS011;58741;52.672;13.548;2024-02-21T06:53:53;7.25;;;3.38;;
71083;SDS011;58741;52.672;13.548;2024-02-21T06:56:22;8.52;;;3.60;;
71083;SDS011;58741;52.672;13.548;2024-02-21T06:58:53;7.60;;;3.90;;
71083;SDS011;58741;52.672;13.548;2024-02-21T07:01:20;8.02;;;3.10;;
71083;SDS011;58741;52.672;13.548;2024-02-21T07:03:47;9.95;;;3.85;;
71083;SDS011;58741;52.672;13.548;2024-02-21T07:06:14;7.25;;;3.35;;
71083;SDS011;58741;52.672;13.548;2024-02-21T07:08:41;8.10;;;4.80;;
71083;SDS011;58741;52.672;13.548;2024-02-21T07:11:08;6.28;;;3.83;;
71083;SDS011;58741;52.672;13.548;2024-02-21T07:13:35;8.95;;;4.60;;
71083;SDS011;58741;52.672;13.548;2024-02-21T07:16:02;9.77;;;4.25;;
71083;SDS011;58741;52.672;13.548;2024-02-21T07:18:29;8.18;;;3.38;;
71083;SDS011;58741;52.672;13.548;2024-02-21T07:20:56;10.68;;;4.80;;
71083;SDS011;58741;52.672;13.548;2024-02-21T07:23:23;6.97;;;3.10;;
71083;SDS011;58741;52.672;13.548;2024-02-21T07:25:50;6.57;;;3.58;;
71083;SDS011;58741;52.672;13.548;2024-02-21T07:28:17;9.50;;;4.63;;
71083;SDS011;58741;52.672;13.548;2024-02-21T07:30:44;7.93;;;3.95;;
71083;SDS011;58741;52.672;13.548;2024-02-21T07:33:10;6.70;;;3.60;;
71083;SDS011;58741;52.672;13.548;2024-02-21T07:35:37;8.80;;;4.18;;
71083;SDS011;58741;52.672;13.548;2024-02-21T07:38:04;6.40;;;3.92;;
71083;SDS011;58741;52.672;13.548;2024-02-21T07:40:31;8.02;;;3.63;;
71083;SDS011;58741;52.672;13.548;2024-02-21T07:42:58;8.95;;;3.97;;
71083;SDS011;58741;52.672;13.548;2024-02-21T07:45:25;8.55;;;3.90;;
71083;SDS011;58741;52.672;13.548;2024-02-21T07:47:52;4.78;;;2.70;;
71083;SDS011;58741;52.672;13.548;2024-02-21T07:50:19;12.75;;;5.32;;
71083;SDS011;58741;52.672;13.548;2024-02-21T07:52:46;8.38;;;4.93;;
71083;SDS011;58741;52.672;13.548;2024-02-21T07:55:13;6.57;;;3.70;;
71083;SDS011;58741;52.672;13.548;2024-02-21T07:57:40;6.22;;;3.90;;
71083;SDS011;58741;52.672;13.548;2024-02-21T08:00:07;6.00;;;3.40;;
71083;SDS011;58741;52.672;13.548;2024-02-21T08:02:41;5.28;;;3.53;;
71083;SDS011;58741;52.672;13.548;2024-02-21T08:05:10;6.38;;;3.88;;
71083;SDS011;58741;52.672;13.548;2024-02-21T08:07:38;8.63;;;4.07;;
71083;SDS011;58741;52.672;13.548;2024-02-21T08:10:06;11.32;;;5.25;;
71083;SDS011;58741;52.672;13.548;2024-02-21T08:12:34;7.40;;;4.45;;
71083;SDS011;58741;52.672;13.548;2024-02-21T08:15:02;5.05;;;3.45;;
71083;SDS011;58741;52.672;13.548;2024-02-21T08:17:34;7.40;;;4.13;;
71083;SDS011;58741;52.672;13.548;2024-02-21T08:20:01;9.45;;;4.32;;
71083;SDS011;58741;52.672;13.548;2024-02-21T08:22:29;9.98;;;4.85;;
71083;SDS011;58741;52.672;13.548;2024-02-21T08:24:55;10.45;;;4.40;;
71083;SDS011;58741;52.672;13.548;2024-02-21T08:27:22;7.30;;;4.03;;
71083;SDS011;58741;52.672;13.548;2024-02-21T08:29:49;7.15;;;3.60;;
71083;SDS011;58741;52.672;13.548;2024-02-21T08:32:16;10.25;;;5.20;;
71083;SDS011;58741;52.672;13.548;2024-02-21T08:34:43;6.47;;;3.75;;
71083;SDS011;58741;52.672;13.548;2024-02-21T08:37:09;6.35;;;3.58;;
71083;SDS011;58741;52.672;13.548;2024-02-21T08:39:37;11.82;;;4.60;;
71083;SDS011;58741;52.672;13.548;2024-02-21T08:42:04;9.18;;;3.97;;
71083;SDS011;58741;52.672;13.548;2024-02-21T08:44:31;7.75;;;3.90;;
71083;SDS011;58741;52.672;13.548;2024-02-21T08:46:58;9.57;;;4.70;;
71083;SDS011;58741;52.672;13.548;2024-02-21T08:49:25;8.15;;;4.53;;
71083;SDS011;58741;52.672;13.548;2024-02-21T08:52:00;7.20;;;3.95;;
71083;SDS011;58741;52.672;13.548;2024-02-21T08:54:29;6.82;;;3.58;;
71083;SDS011;58741;52.672;13.548;2024-02-21T08:56:57;7.57;;;3.65;;
71083;SDS011;58741;52.672;13.548;2024-02-21T08:59:24;8.43;;;4.88;;
71083;SDS011;58741;52.672;13.548;2024-02-21T09:01:52;5.95;;;3.67;;
71083;SDS011;58741;52.672;13.548;2024-02-21T09:04:19;7.60;;;3.80;;
71083;SDS011;58741;52.672;13.548;2024-02-21T09:06:46;6.55;;;3.40;;
71083;SDS011;58741;52.672;13.548;2024-02-21T09:09:13;6.90;;;3.33;;
71083;SDS011;58741;52.672;13.548;2024-02-21T09:11:40;4.78;;;2.45;;
71083;SDS011;58741;52.672;13.548;2024-02-21T09:14:07;6.70;;;3.95;;
71083;SDS011;58741;52.672;13.548;2024-02-21T09:16:34;12.68;;;4.10;;
71083;SDS011;58741;52.672;13.548;2024-02-21T09:19:01;7.82;;;4.43;;
71083;SDS011;58741;52.672;13.548;2024-02-21T09:21:28;10.40;;;4.78;;
71083;SDS011;58741;52.672;13.548;2024-02-21T09:23:55;7.97;;;4.13;;
71083;SDS011;58741;52.672;13.548;2024-02-21T09:26:25;8.88;;;5.15;;
71083;SDS011;58741;52.672;13.548;2024-02-21T09:28:52;7.65;;;4.05;;
71083;SDS011;58741;52.672;13.548;2024-02-21T09:31:20;12.02;;;5.80;;
71083;SDS011;58741;52.672;13.548;2024-02-21T09:33:47;6.75;;;4.53;;
71083;SDS011;58741;52.672;13.548;2024-02-21T09:36:14;8.00;;;4.45;;
71083;SDS011;58741;52.672;13.548;2024-02-21T09:38:41;7.80;;;4.53;;
71083;SDS011;58741;52.672;13.548;2024-02-21T09:41:11;10.88;;;5.95;;
71083;SDS011;58741;52.672;13.548;2024-02-21T09:43:51;14.32;;;6.78;;
71083;SDS011;58741;52.672;13.548;2024-02-21T09:46:22;11.57;;;6.38;;
71083;SDS011;58741;52.672;13.548;2024-02-21T09:49:27;9.80;;;4.72;;
71083;SDS011;58741;52.672;13.548;2024-02-21T09:52:00;8.23;;;5.10;;
71083;SDS011;58741;52.672;13.548;2024-02-21T09:54:32;12.00;;;5.45;;
71083;SDS011;58741;52.672;13.548;2024-02-21T09:57:00;12.90;;;5.82;;
71083;SDS011;58741;52.672;13.548;2024-02-21T09:59:28;8.93;;;4.95;;
71083;SDS011;58741;52.672;13.548;2024-02-21T10:01:58;8.95;;;4.50;;
71083;SDS011;58741;52.672;13.548;2024-02-21T10:04:28;10.20;;;4.75;;
71083;SDS011;58741;52.672;13.548;2024-02-21T10:06:56;8.43;;;4.38;;
71083;SDS011;58741;52.672;13.548;2024-02-21T10:09:24;9.15;;;5.60;;
71083;SDS011;58741;52.672;13.548;2024-02-21T10:12:06;8.25;;;4.30;;
71083;SDS011;58741;52.672;13.548;2024-02-21T10:14:39;14.00;;;5.70;;
71083;SDS011;58741;52.672;13.548;2024-02-21T10:17:06;14.00;;;5.95;;
71083;SDS011;58741;52.672;13.548;2024-02-21T10:19:37;8.15;;;4.68;;
71083;SDS011;58741;52.672;13.548;2024-02-21T10:22:08;7.22;;;4.00;;
71083;SDS011;58741;52.672;13.548;2024-02-21T10:24:36;13.65;;;5.07;;
71083;SDS011;58741;52.672;13.548;2024-02-21T10:27:05;9.57;;;5.18;;
71083;SDS011;58741;52.672;13.548;2024-02-21T10:29:39;7.03;;;3.85;;
71083;SDS011;58741;52.672;13.548;2024-02-21T10:32:09;13.00;;;5.75;;
71083;SDS011;58741;52.672;13.548;2024-02-21T10:34:38;8.40;;;4.20;;
71083;SDS011;58741;52.672;13.548;2024-02-21T10:37:07;9.27;;;4.78;;
71083;SDS011;58741;52.672;13.548;2024-02-21T10:39:36;9.20;;;4.53;;
71083;SDS011;58741;52.672;13.548;2024-02-21T10:42:05;8.13;;;4.50;;
71083;SDS011;58741;52.672;13.548;2024-02-21T10:44:36;8.15;;;4.95;;
71083;SDS011;58741;52.672;13.548;2024-02-21T10:47:07;8.98;;;4.90;;
71083;SDS011;58741;52.672;13.548;2024-02-21T10:49:39;9.25;;;4.47;;
71083;SDS011;58741;52.672;13.548;2024-02-21T10:55:03;9.73;;;4.72;;
71083;SDS011;58741;52.672;13.548;2024-02-21T10:57:32;8.73;;;5.07;;
71083;SDS011;58741;52.672;13.548;2024-02-21T11:00:00;7.63;;;4.75;;
71083;SDS011;58741;52.672;13.548;2024-02-21T11:02:29;8.90;;;5.18;;
71083;SDS011;58741;52.672;13.548;2024-02-21T11:04:57;6.90;;;3.88;;
71083;SDS011;58741;52.672;13.548;2024-02-21T11:07:26;7.95;;;3.85;;
71083;SDS011;58741;52.672;13.548;2024-02-21T11:09:53;9.45;;;4.18;;
71083;SDS011;58741;52.672;13.548;2024-02-21T11:12:23;6.00;;;4.10;;
71083;SDS011;58741;52.672;13.548;2024-02-21T11:15:03;10.40;;;3.97;;
71083;SDS011;58741;52.672;13.548;2024-02-21T11:17:33;6.30;;;3.95;;
71083;SDS011;58741;52.672;13.548;2024-02-21T11:20:12;7.55;;;4.22;;
71083;SDS011;58741;52.672;13.548;2024-02-21T11:22:43;7.57;;;4.05;;
71083;SDS011;58741;52.672;13.548;2024-02-21T11:25:10;5.85;;;3.78;;
71083;SDS011;58741;52.672;13.548;2024-02-21T11:27:45;5.68;;;3.33;;
71083;SDS011;58741;52.672;13.548;2024-02-21T11:30:12;6.95;;;3.75;;
71083;SDS011;58741;52.672;13.548;2024-02-21T11:32:40;4.43;;;3.40;;
71083;SDS011;58741;52.672;13.548;2024-02-21T11:35:07;9.93;;;3.13;;
71083;SDS011;58741;52.672;13.548;2024-02-21T11:37:45;4.55;;;2.95;;
71083;SDS011;58741;52.672;13.548;2024-02-21T11:40:12;4.15;;;2.92;;
71083;SDS011;58741;52.672;13.548;2024-02-21T11:42:39;5.00;;;3.30;;
71083;SDS011;58741;52.672;13.548;2024-02-21T11:45:06;4.47;;;3.25;;
71083;SDS011;58741;52.672;13.548;2024-02-21T11:47:35;5.00;;;3.13;;
71083;SDS011;58741;52.672;13.548;2024-02-21T11:50:05;5.20;;;2.92;;
71083;SDS011;58741;52.672;13.548;2024-02-21T11:52:37;5.40;;;3.08;;
71083;SDS011;58741;52.672;13.548;2024-02-21T11:55:04;4.07;;;2.75;;
71083;SDS011;58741;52.672;13.548;2024-02-21T11:57:32;4.43;;;2.92;;
71083;SDS011;58741;52.672;13.548;2024-02-21T12:02:42;7.35;;;3.03;;
71083;SDS011;58741;52.672;13.548;2024-02-21T12:05:11;5.90;;;2.55;;
71083;SDS011;58741;52.672;13.548;2024-02-21T12:07:39;3.00;;;2.33;;
71083;SDS011;58741;52.672;13.548;2024-02-21T12:10:10;5.07;;;2.83;;
71083;SDS011;58741;52.672;13.548;2024-02-21T12:12:38;4.13;;;2.55;;
71083;SDS011;58741;52.672;13.548;2024-02-21T12:15:05;3.55;;;2.63;;
71083;SDS011;58741;52.672;13.548;2024-02-21T12:17:34;5.75;;;2.85;;
71083;SDS011;58741;52.672;13.548;2024-02-21T12:20:02;4.28;;;2.15;;
71083;SDS011;58741;52.672;13.548;2024-02-21T12:22:35;4.43;;;2.00;;
71083;SDS011;58741;52.672;13.548;2024-02-21T12:25:03;7.53;;;1.80;;
71083;SDS011;58741;52.672;13.548;2024-02-21T12:27:30;2.75;;;1.90;;
71083;SDS011;58741;52.672;13.548;2024-02-21T12:29:57;2.25;;;1.92;;
71083;SDS011;58741;52.672;13.548;2024-02-21T12:32:24;3.65;;;2.20;;
71083;SDS011;58741;52.672;13.548;2024-02-21T12:34:51;8.45;;;2.42;;
71083;SDS011;58741;52.672;13.548;2024-02-21T12:37:21;1.85;;;1.55;;
71083;SDS011;58741;52.672;13.548;2024-02-21T12:39:50;1.83;;;1.50;;
71083;SDS011;58741;52.672;13.548;2024-02-21T12:42:17;3.15;;;1.55;;
71083;SDS011;58741;52.672;13.548;2024-02-21T12:44:44;3.42;;;1.67;;
71083;SDS011;58741;52.672;13.548;2024-02-21T12:47:12;4.07;;;1.92;;
71083;SDS011;58741;52.672;13.548;2024-02-21T12:49:39;5.50;;;1.80;;
71083;SDS011;58741;52.672;13.548;2024-02-21T12:52:11;3.90;;;2.00;;
71083;SDS011;58741;52.672;13.548;2024-02-21T12:54:39;3.13;;;1.08;;
71083;SDS011;58741;52.672;13.548;2024-02-21T12:57:06;2.95;;;1.30;;
71083;SDS011;58741;52.672;13.548;2024-02-21T12:59:33;1.73;;;1.52;;
71083;SDS011;58741;52.672;13.548;2024-02-21T13:02:00;4.57;;;1.30;;
71083;SDS011;58741;52.672;13.548;2024-02-21T13:04:27;2.45;;;1.50;;
71083;SDS011;58741;52.672;13.548;2024-02-21T13:06:54;2.50;;;2.05;;
71083;SDS011;58741;52.672;13.548;2024-02-21T13:09:22;3.45;;;2.08;;
71083;SDS011;58741;52.672;13.548;2024-02-21T13:11:48;3.70;;;2.17;;
71083;SDS011;58741;52.672;13.548;2024-02-21T13:14:17;1.90;;;1.25;;
71083;SDS011;58741;52.672;13.548;2024-02-21T13:16:44;2.17;;;1.17;;
71083;SDS011;58741;52.672;13.548;2024-02-21T13:19:11;1.20;;;1.00;;
71083;SDS011;58741;52.672;13.548;2024-02-21T13:21:40;3.17;;;1.73;;
71083;SDS011;58741;52.672;13.548;2024-02-21T13:24:07;2.55;;;1.05;;
71083;SDS011;58741;52.672;13.548;2024-02-21T13:26:34;3.10;;;2.20;;
71083;SDS011;58741;52.672;13.548;2024-02-21T13:29:01;2.53;;;1.75;;
71083;SDS011;58741;52.672;13.548;2024-02-21T13:31:29;2.78;;;1.42;;
71083;SDS011;58741;52.672;13.548;2024-02-21T13:33:55;2.35;;;1.27;;
71083;SDS011;58741;52.672;13.548;2024-02-21T13:36:22;1.17;;;1.02;;
71083;SDS011;58741;52.672;13.548;2024-02-21T13:38:50;1.88;;;1.30;;
71083;SDS011;58741;52.672;13.548;2024-02-21T13:41:17;1.98;;;1.20;;
71083;SDS011;58741;52.672;13.548;2024-02-21T13:43:44;1.02;;;0.93;;
71083;SDS011;58741;52.672;13.548;2024-02-21T13:46:13;1.42;;;1.00;;
71083;SDS011;58741;52.672;13.548;2024-02-21T13:48:40;1.05;;;0.68;;
71083;SDS011;58741;52.672;13.548;2024-02-21T13:51:07;1.50;;;1.20;;
71083;SDS011;58741;52.672;13.548;2024-02-21T13:53:34;1.55;;;1.00;;
71083;SDS011;58741;52.672;13.548;2024-02-21T13:56:01;2.10;;;1.20;;
71083;SDS011;58741;52.672;13.548;2024-02-21T13:58:28;1.38;;;1.27;;
71083;SDS011;58741;52.672;13.548;2024-02-21T14:00:55;2.33;;;1.63;;
71083;SDS011;58741;52.672;13.548;2024-02-21T14:03:22;1.70;;;1.15;;
71083;SDS011;58741;52.672;13.548;2024-02-21T14:05:50;1.75;;;1.25;;
71083;SDS011;58741;52.672;13.548;2024-02-21T14:08:17;3.05;;;1.25;;
71083;SDS011;58741;52.672;13.548;2024-02-21T14:10:44;2.28;;;1.33;;
71083;SDS011;58741;52.672;13.548;2024-02-21T14:13:11;4.10;;;1.30;;
71083;SDS011;58741;52.672;13.548;2024-02-21T14:15:39;3.55;;;1.20;;
71083;SDS011;58741;52.672;13.548;2024-02-21T14:18:10;2.83;;;1.35;;
71083;SDS011;58741;52.672;13.548;2024-02-21T14:20:37;2.63;;;1.20;;
71083;SDS011;58741;52.672;13.548;2024-02-21T14:23:04;1.80;;;1.35;;
71083;SDS011;58741;52.672;13.548;2024-02-21T14:25:31;5.68;;;1.88;;
71083;SDS011;58741;52.672;13.548;2024-02-21T14:27:59;3.78;;;1.75;;
71083;SDS011;58741;52.672;13.548;2024-02-21T14:30:29;3.80;;;1.65;;
71083;SDS011;58741;52.672;13.548;2024-02-21T14:32:56;3.97;;;1.73;;
71083;SDS011;58741;52.672;13.548;2024-02-21T14:35:23;2.72;;;1.25;;
71083;SDS011;58741;52.672;13.548;2024-02-21T14:37:50;2.60;;;1.40;;
71083;SDS011;58741;52.672;13.548;2024-02-21T14:40:19;2.97;;;0.82;;
71083;SDS011;58741;52.672;13.548;2024-02-21T14:42:47;2.65;;;1.23;;
71083;SDS011;58741;52.672;13.548;2024-02-21T14:45:14;2.95;;;1.20;;